createdAt,value
2023-04-27T00:04:33.100Z,96927.77
2023-04-27T00:14:36.479Z,96926.17
2023-04-27T00:24:39.908Z,96931.56
2023-04-27T00:34:42.933Z,96932.52
2023-04-27T00:44:47.158Z,96932.38
2023-04-27T00:54:52.480Z,96931.63
2023-04-27T01:04:57.691Z,96934.95
2023-04-27T01:15:00.761Z,96939.63
2023-04-27T01:25:04.243Z,96941.86
2023-04-27T01:35:08.021Z,96944.61
2023-04-27T01:45:11.860Z,96956.02
2023-04-27T01:55:15.067Z,96954.14
2023-04-27T02:05:18.571Z,96952.91
2023-04-27T02:15:22.734Z,96953.48
2023-04-27T02:25:26.082Z,96956.95
2023-04-27T02:35:29.146Z,96963.67
2023-04-27T02:45:38.920Z,96965.37
2023-04-27T02:55:48.372Z,96968.58
2023-04-27T03:05:51.631Z,96971.60
2023-04-27T03:15:55.052Z,96974.38
2023-04-27T03:25:58.206Z,96973.39
2023-04-27T03:36:01.936Z,96975.58
2023-04-27T03:46:05.098Z,96985.84
2023-04-27T03:56:08.378Z,96993.86
2023-04-27T04:06:12.200Z,97002.16
2023-04-27T04:16:16.038Z,97009.03
2023-04-27T04:26:20.675Z,97016.22
2023-04-27T04:36:24.285Z,97024.17
2023-04-27T04:46:31.028Z,97033.85
2023-04-27T04:56:34.452Z,97044.81
2023-04-27T05:06:38.268Z,97052.76
2023-04-27T05:16:41.476Z,97057.21
2023-04-27T05:26:44.755Z,97050.53
2023-04-27T05:36:48.012Z,97052.68
2023-04-27T05:46:51.308Z,97061.08
2023-04-27T05:56:54.446Z,97066.90
2023-04-27T06:06:58.189Z,97073.98
2023-04-27T06:17:02.085Z,97076.20
2023-04-27T06:27:06.766Z,97070.11
2023-04-27T06:37:09.978Z,97068.17
2023-04-27T06:47:13.389Z,97069.98
2023-04-27T06:57:16.747Z,97065.09
2023-04-27T07:07:19.817Z,97064.71
2023-04-27T07:17:22.992Z,97065.89
2023-04-27T07:27:26.810Z,97069.46
2023-04-27T07:37:30.401Z,97082.41
2023-04-27T07:47:33.643Z,97091.65
2023-04-27T07:57:36.826Z,97092.02
2023-04-27T08:07:44.642Z,97095.22
2023-04-27T08:17:48.451Z,97102.59
2023-04-27T08:27:51.687Z,97109.77
2023-04-27T08:37:54.882Z,97124.28
2023-04-27T08:47:58.249Z,97118.95
2023-04-27T08:58:01.957Z,97105.64
2023-04-27T09:08:08.375Z,97111.73
2023-04-27T09:18:21.749Z,97105.27
2023-04-27T09:28:30.978Z,97089.11
2023-04-27T09:38:34.536Z,97085.38
2023-04-27T09:48:39.403Z,97071.13
2023-04-27T09:58:46.505Z,97074.34
2023-04-27T10:08:51.494Z,97090.67
2023-04-27T10:18:58.337Z,97084.50
2023-04-27T10:29:09.291Z,97069.73
2023-04-27T10:39:20.341Z,97057.10
2023-04-27T10:49:24.159Z,97052.24
2023-04-27T10:59:27.542Z,97078.37
2023-04-27T11:09:30.616Z,97083.39
2023-04-27T11:20:05.190Z,97093.02
2023-04-27T11:30:20.371Z,97104.70
2023-04-27T11:40:28.966Z,97096.88
2023-04-27T11:50:32.183Z,97090.00
2023-04-27T12:00:36.187Z,97089.08
2023-04-27T12:10:40.257Z,97077.77
2023-04-27T12:20:43.499Z,97076.06
2023-04-27T12:30:46.797Z,97070.23
2023-04-27T12:40:50.089Z,97079.89
2023-04-27T12:50:53.227Z,97093.55
2023-04-27T13:01:00.173Z,97086.05
2023-04-27T13:11:03.726Z,97077.20
2023-04-27T13:21:08.232Z,97072.89
2023-04-27T13:31:12.117Z,97075.85
2023-04-27T13:41:15.506Z,97080.95
2023-04-27T13:51:18.739Z,97079.69
2023-04-27T14:01:22.700Z,97079.30
2023-04-27T14:11:26.438Z,97077.73
2023-04-27T14:21:29.936Z,97077.15
2023-04-27T14:31:33.067Z,97089.33
2023-04-27T14:41:39.897Z,97094.85
2023-04-27T14:51:43.724Z,97100.98
2023-04-27T15:01:47.090Z,97104.22
2023-04-27T15:11:50.197Z,97108.80
2023-04-27T15:21:53.255Z,97118.48
2023-04-27T15:31:56.481Z,97126.06
2023-04-27T15:41:59.953Z,97129.12
2023-04-27T15:52:03.847Z,97131.31
2023-04-27T16:02:07.192Z,97139.02
2023-04-27T16:12:10.502Z,97136.63
2023-04-27T16:22:13.607Z,97137.33
2023-04-27T16:32:20.159Z,97141.90
2023-04-27T16:42:23.931Z,97145.14
2023-04-27T16:52:27.035Z,97150.17
2023-04-27T17:02:31.024Z,97153.21
2023-04-27T17:12:36.337Z,97160.00
2023-04-27T17:22:39.492Z,97170.61
2023-04-27T17:32:42.639Z,97175.42
2023-04-27T17:42:45.960Z,97180.27
2023-04-27T17:52:51.231Z,97186.36
2023-04-27T18:02:54.538Z,97200.92
2023-04-27T18:12:57.921Z,97213.56
2023-04-27T18:23:01.028Z,97222.83
2023-04-27T18:33:07.338Z,97234.96
2023-04-27T18:43:10.673Z,97241.04
2023-04-27T18:53:14.076Z,97246.58
2023-04-27T19:03:17.268Z,97250.02
2023-04-27T19:13:21.297Z,97256.23
2023-04-27T19:23:24.435Z,97261.16
2023-04-27T19:33:27.723Z,97258.52
2023-04-27T19:43:30.995Z,97252.88
2023-04-27T19:53:34.076Z,97257.30
2023-04-27T20:03:38.037Z,97257.61
2023-04-27T20:13:41.585Z,97260.88
2023-04-27T20:23:47.484Z,97268.22
2023-04-27T20:33:50.675Z,97276.48
2023-04-27T20:43:54.090Z,97276.71
2023-04-27T20:53:57.241Z,97286.29
2023-04-27T21:04:01.391Z,97286.13
2023-04-27T21:14:05.146Z,97286.61
2023-04-27T21:24:08.909Z,97290.56
2023-04-27T21:34:12.055Z,97284.40
2023-04-27T21:44:15.788Z,97287.52
2023-04-27T21:54:19.220Z,97295.28
2023-04-27T22:04:23.318Z,97302.29
2023-04-27T22:14:26.930Z,97313.91
2023-04-27T22:24:30.133Z,97323.56
2023-04-27T22:34:33.784Z,97330.31
2023-04-27T22:44:37.131Z,97329.80
2023-04-27T22:54:40.202Z,97331.02
2023-04-27T23:04:43.988Z,97325.98
2023-04-27T23:14:47.438Z,97325.13
2023-04-27T23:24:50.995Z,97320.67
2023-04-27T23:34:57.508Z,97325.92
2023-04-27T23:45:01.837Z,97324.63
2023-04-27T23:55:05.385Z,97324.23
